createdAt,value
2018-12-12T00:00:43.782Z,1020.15
2018-12-12T00:01:43.620Z,1020.14
2018-12-12T00:02:43.768Z,1020.15
2018-12-12T00:03:43.622Z,1020.16
2018-12-12T00:05:43.681Z,1020.17
2018-12-12T00:06:43.717Z,1020.20
2018-12-12T00:07:44.046Z,1020.20
2018-12-12T00:08:43.788Z,1020.21
2018-12-12T00:09:43.806Z,1020.22
2018-12-12T00:10:43.841Z,1020.23
2018-12-12T00:11:44.005Z,1020.22
2018-12-12T00:12:43.896Z,1020.28
2018-12-12T00:13:43.926Z,1020.26
2018-12-12T00:14:45.712Z,1020.30
2018-12-12T00:15:43.989Z,1020.30
2018-12-12T00:17:44.143Z,1020.26
2018-12-12T00:18:44.027Z,1020.22
2018-12-12T00:19:44.115Z,1020.22
2018-12-12T00:20:44.088Z,1020.28
2018-12-12T00:21:44.422Z,1020.26
2018-12-12T00:22:44.204Z,1020.26
2018-12-12T00:23:44.276Z,1020.28
2018-12-12T00:24:44.261Z,1020.31
2018-12-12T00:25:44.241Z,1020.34
2018-12-12T00:26:44.274Z,1020.33
2018-12-12T00:27:44.395Z,1020.35
2018-12-12T00:28:44.679Z,1020.33
2018-12-12T00:29:44.662Z,1020.32
2018-12-12T00:30:44.441Z,1020.29
2018-12-12T00:31:44.468Z,1020.28
2018-12-12T00:33:44.486Z,1020.26
2018-12-12T00:34:44.512Z,1020.24
2018-12-12T00:35:44.844Z,1020.20
2018-12-12T00:36:44.632Z,1020.20
2018-12-12T00:37:44.657Z,1020.19
2018-12-12T00:38:44.683Z,1020.17
2018-12-12T00:39:44.719Z,1020.16
2018-12-12T00:40:44.763Z,1020.14
2018-12-12T00:41:44.787Z,1020.12
2018-12-12T00:42:45.116Z,1020.11
2018-12-12T00:43:44.790Z,1020.11
2018-12-12T00:44:45.013Z,1020.07
2018-12-12T00:45:44.846Z,1020.10
2018-12-12T00:46:44.878Z,1020.08
2018-12-12T00:47:44.907Z,1020.04
2018-12-12T00:48:44.955Z,1020.04
2018-12-12T00:49:45.293Z,1020.05
2018-12-12T00:50:45.052Z,1019.98
2018-12-12T00:51:45.086Z,1020.02
2018-12-12T00:52:45.112Z,1019.99
2018-12-12T00:53:45.089Z,1019.99
2018-12-12T00:54:45.224Z,1019.96
2018-12-12T00:55:45.251Z,1019.96
2018-12-12T00:56:45.534Z,1019.96
2018-12-12T00:57:45.256Z,1020.00
2018-12-12T00:58:45.396Z,1020.02
2018-12-12T00:59:45.275Z,1020.02
2018-12-12T01:00:45.298Z,1020.05
2018-12-12T01:01:45.390Z,1020.07
2018-12-12T01:02:45.415Z,1020.08
2018-12-12T01:03:45.702Z,1020.11
2018-12-12T01:04:45.420Z,1020.08
2018-12-12T01:05:45.453Z,1020.10
2018-12-12T01:06:45.534Z,1020.14
2018-12-12T01:07:45.616Z,1020.14
2018-12-12T01:08:45.540Z,1020.14
2018-12-12T01:09:45.618Z,1020.14
2018-12-12T01:10:45.959Z,1020.11
2018-12-12T01:11:45.689Z,1020.14
2018-12-12T01:12:45.720Z,1020.16
2018-12-12T01:13:45.697Z,1020.14
2018-12-12T01:14:45.795Z,1020.17
2018-12-12T01:15:45.776Z,1020.15
2018-12-12T01:16:45.839Z,1020.18
2018-12-12T01:17:46.177Z,1020.17
2018-12-12T01:18:45.910Z,1020.20
2018-12-12T01:19:45.934Z,1020.20
2018-12-12T01:20:45.967Z,1020.22
2018-12-12T01:21:45.988Z,1020.21
2018-12-12T01:22:46.021Z,1020.26
2018-12-12T01:23:46.049Z,1020.21
2018-12-12T01:24:46.383Z,1020.24
2018-12-12T01:25:46.079Z,1020.25
2018-12-12T01:26:46.135Z,1020.23
2018-12-12T01:27:46.167Z,1020.25
2018-12-12T01:28:46.204Z,1020.28
2018-12-12T01:30:46.263Z,1020.26
2018-12-12T01:31:46.600Z,1020.24
2018-12-12T01:32:46.331Z,1020.24
2018-12-12T01:33:46.356Z,1020.22
2018-12-12T01:34:46.378Z,1020.23
2018-12-12T01:35:46.409Z,1020.25
2018-12-12T01:36:46.440Z,1020.24
2018-12-12T01:37:46.869Z,1020.20
2018-12-12T01:38:46.508Z,1020.23
2018-12-12T01:39:46.539Z,1020.23
2018-12-12T01:40:46.515Z,1020.25
2018-12-12T01:41:46.549Z,1020.24
2018-12-12T01:42:46.628Z,1020.22
2018-12-12T01:43:46.960Z,1020.23
2018-12-12T01:44:46.641Z,1020.18
2018-12-12T01:45:46.718Z,1020.20
2018-12-12T01:46:46.744Z,1020.22
2018-12-12T01:47:46.723Z,1020.26
2018-12-12T01:48:46.807Z,1020.29
2018-12-12T01:49:47.141Z,1020.31
2018-12-12T01:50:46.868Z,1020.30
2018-12-12T01:51:46.849Z,1020.35
2018-12-12T01:52:46.940Z,1020.36
2018-12-12T01:53:46.912Z,1020.39
2018-12-12T01:54:46.997Z,1020.45
2018-12-12T01:55:47.096Z,1020.48
2018-12-12T01:56:47.354Z,1020.46
2018-12-12T01:57:47.082Z,1020.46
2018-12-12T01:58:47.131Z,1020.44
2018-12-12T01:59:47.111Z,1020.47
2018-12-12T02:00:47.135Z,1020.45
2018-12-12T02:01:47.159Z,1020.46
2018-12-12T02:02:47.197Z,1020.47
2018-12-12T02:03:47.564Z,1020.44
2018-12-12T02:04:47.294Z,1020.44
2018-12-12T02:05:47.338Z,1020.43
2018-12-12T02:06:47.353Z,1020.46
2018-12-12T02:07:47.387Z,1020.43
2018-12-12T02:08:47.412Z,1020.45
2018-12-12T02:09:47.450Z,1020.47
2018-12-12T02:10:47.726Z,1020.44
2018-12-12T02:11:47.507Z,1020.45
2018-12-12T02:13:47.868Z,1020.40
2018-12-12T02:14:47.600Z,1020.45
2018-12-12T02:15:47.638Z,1020.43
2018-12-12T02:16:47.661Z,1020.40
2018-12-12T02:17:48.187Z,1020.44
2018-12-12T02:18:47.824Z,1020.45
2018-12-12T02:19:47.696Z,1020.44
2018-12-12T02:20:47.781Z,1020.46
2018-12-12T02:21:47.777Z,1020.45
2018-12-12T02:22:47.843Z,1020.46
2018-12-12T02:23:47.914Z,1020.44
2018-12-12T02:24:48.202Z,1020.45
2018-12-12T02:25:47.878Z,1020.46
2018-12-12T02:26:47.961Z,1020.48
2018-12-12T02:27:47.939Z,1020.50
2018-12-12T02:28:47.969Z,1020.46
2018-12-12T02:29:48.004Z,1020.48
2018-12-12T02:30:48.084Z,1020.43
2018-12-12T02:31:48.363Z,1020.44
2018-12-12T02:32:48.145Z,1020.45
2018-12-12T02:33:48.121Z,1020.42
2018-12-12T02:34:48.152Z,1020.40
2018-12-12T02:35:48.237Z,1020.42
2018-12-12T02:36:48.211Z,1020.41
2018-12-12T02:37:48.292Z,1020.40
2018-12-12T02:38:48.576Z,1020.41
2018-12-12T02:39:48.329Z,1020.43
2018-12-12T02:40:48.392Z,1020.43
2018-12-12T02:41:48.428Z,1020.40
2018-12-12T02:42:48.461Z,1020.42
2018-12-12T02:43:48.477Z,1020.43
2018-12-12T02:44:48.460Z,1020.45
2018-12-12T02:45:48.785Z,1020.41
2018-12-12T02:46:48.573Z,1020.44
2018-12-12T02:48:48.625Z,1020.41
2018-12-12T02:49:48.630Z,1020.38
2018-12-12T02:50:48.734Z,1020.37
2018-12-12T02:51:48.674Z,1020.35
2018-12-12T02:52:49.063Z,1020.30
2018-12-12T02:53:48.779Z,1020.30
2018-12-12T02:54:48.818Z,1020.33
2018-12-12T02:55:48.802Z,1020.35
2018-12-12T02:56:48.872Z,1020.35
2018-12-12T02:57:48.905Z,1020.32
2018-12-12T02:58:48.937Z,1020.37
2018-12-12T02:59:49.266Z,1020.35
2018-12-12T03:00:49.044Z,1020.38
2018-12-12T03:01:48.977Z,1020.38
2018-12-12T03:02:49.050Z,1020.39
2018-12-12T03:03:49.080Z,1020.40
2018-12-12T03:04:49.116Z,1020.43
2018-12-12T03:05:49.142Z,1020.42
2018-12-12T03:06:49.473Z,1020.44
2018-12-12T03:07:49.251Z,1020.51
2018-12-12T03:08:49.184Z,1020.49
2018-12-12T03:09:49.268Z,1020.51
2018-12-12T03:10:49.307Z,1020.52
2018-12-12T03:11:49.327Z,1020.54
2018-12-12T03:12:49.319Z,1020.50
2018-12-12T03:13:49.645Z,1020.51
2018-12-12T03:14:49.430Z,1020.55
2018-12-12T03:15:49.450Z,1020.54
2018-12-12T03:16:49.482Z,1020.54
2018-12-12T03:17:49.563Z,1020.55
2018-12-12T03:18:49.542Z,1020.54
2018-12-12T03:19:49.568Z,1020.59
2018-12-12T03:20:49.902Z,1020.56
2018-12-12T03:21:49.589Z,1020.56
2018-12-12T03:22:49.666Z,1020.54
2018-12-12T03:23:49.695Z,1020.58
2018-12-12T03:24:49.778Z,1020.54
2018-12-12T03:25:49.706Z,1020.57
2018-12-12T03:26:49.787Z,1020.55
2018-12-12T03:27:50.121Z,1020.60
2018-12-12T03:28:49.843Z,1020.60
2018-12-12T03:29:49.882Z,1020.61
2018-12-12T03:30:49.908Z,1020.61
2018-12-12T03:31:49.931Z,1020.63
2018-12-12T03:32:49.923Z,1020.58
2018-12-12T03:33:50.300Z,1020.60
2018-12-12T03:34:50.023Z,1020.59
2018-12-12T03:35:50.022Z,1020.58
2018-12-12T03:36:50.100Z,1020.56
2018-12-12T03:37:50.063Z,1020.55
2018-12-12T03:38:50.151Z,1020.52
2018-12-12T03:39:50.429Z,1020.49
2018-12-12T03:40:50.162Z,1020.47
2018-12-12T03:41:50.191Z,1020.43
2018-12-12T03:42:50.213Z,1020.43
2018-12-12T03:43:50.269Z,1020.43
2018-12-12T03:44:50.328Z,1020.45
2018-12-12T03:45:50.611Z,1020.46
2018-12-12T03:46:50.390Z,1020.47
2018-12-12T03:47:50.435Z,1020.47
2018-12-12T03:48:50.416Z,1020.53
2018-12-12T03:49:50.479Z,1020.50
2018-12-12T03:50:50.526Z,1020.52
2018-12-12T03:51:50.557Z,1020.52
2018-12-12T03:52:50.827Z,1020.53
2018-12-12T03:53:50.551Z,1020.52
2018-12-12T03:54:50.689Z,1020.49
2018-12-12T03:56:50.697Z,1020.49
2018-12-12T03:57:50.677Z,1020.51
2018-12-12T03:59:50.743Z,1020.51
2018-12-12T04:00:51.120Z,1020.50
2018-12-12T04:01:50.845Z,1020.50
2018-12-12T04:02:50.878Z,1020.49
2018-12-12T04:03:50.908Z,1020.51
2018-12-12T04:04:50.882Z,1020.53
2018-12-12T04:05:50.968Z,1020.54
2018-12-12T04:06:50.995Z,1020.47
2018-12-12T04:07:51.281Z,1020.54
2018-12-12T04:08:51.055Z,1020.52
2018-12-12T04:09:51.202Z,1020.53
2018-12-12T04:10:51.119Z,1020.60
2018-12-12T04:11:51.097Z,1020.59
2018-12-12T04:12:51.177Z,1020.61
2018-12-12T04:13:51.158Z,1020.58
2018-12-12T04:14:51.537Z,1020.60
2018-12-12T04:15:51.272Z,1020.60
2018-12-12T04:16:51.407Z,1020.62
2018-12-12T04:17:51.337Z,1020.64
2018-12-12T04:18:51.380Z,1020.61
2018-12-12T04:20:51.376Z,1020.60
2018-12-12T04:21:51.802Z,1020.56
2018-12-12T04:22:51.478Z,1020.57
2018-12-12T04:23:51.515Z,1020.54
2018-12-12T04:24:51.792Z,1020.56
2018-12-12T04:25:51.576Z,1020.58
2018-12-12T04:26:51.607Z,1020.60
2018-12-12T04:27:51.638Z,1020.58
2018-12-12T04:28:51.694Z,1020.61
2018-12-12T04:29:51.641Z,1020.60
2018-12-12T04:30:51.724Z,1020.56
2018-12-12T04:31:51.765Z,1020.54
2018-12-12T04:32:51.741Z,1020.53
2018-12-12T04:33:51.868Z,1020.55
2018-12-12T04:34:52.198Z,1020.54
2018-12-12T04:35:51.911Z,1020.56
2018-12-12T04:36:51.910Z,1020.54
2018-12-12T04:37:51.934Z,1020.56
2018-12-12T04:38:51.979Z,1020.55
2018-12-12T04:39:51.955Z,1020.56
2018-12-12T04:41:46.694Z,1020.56
2018-12-12T04:42:46.483Z,1020.54
2018-12-12T04:43:46.456Z,1020.59
2018-12-12T04:44:46.493Z,1020.60
2018-12-12T04:45:46.616Z,1020.63
2018-12-12T04:46:46.605Z,1020.56
2018-12-12T04:47:46.878Z,1020.58
2018-12-12T04:48:46.625Z,1020.58
2018-12-12T04:49:46.637Z,1020.55
2018-12-12T04:50:46.674Z,1020.51
2018-12-12T04:51:46.758Z,1020.49
2018-12-12T04:52:46.778Z,1020.48
2018-12-12T04:53:47.070Z,1020.45
2018-12-12T04:54:46.789Z,1020.48
2018-12-12T04:55:46.892Z,1020.46
2018-12-12T04:56:46.887Z,1020.47
2018-12-12T04:57:46.934Z,1020.46
2018-12-12T04:58:46.916Z,1020.49
2018-12-12T04:59:46.998Z,1020.50
2018-12-12T05:00:47.269Z,1020.51
2018-12-12T05:01:47.008Z,1020.51
2018-12-12T05:02:47.095Z,1020.54
2018-12-12T05:03:47.128Z,1020.52
2018-12-12T05:04:47.095Z,1020.55
2018-12-12T05:05:47.179Z,1020.54
2018-12-12T05:06:47.204Z,1020.54
2018-12-12T05:07:47.494Z,1020.54
2018-12-12T05:08:47.214Z,1020.56
2018-12-12T05:09:47.300Z,1020.57
2018-12-12T05:10:47.279Z,1020.54
2018-12-12T05:11:47.310Z,1020.54
2018-12-12T05:13:47.416Z,1020.55
2018-12-12T05:14:47.706Z,1020.55
2018-12-12T05:15:47.481Z,1020.58
2018-12-12T05:16:47.467Z,1020.54
2018-12-12T05:17:47.545Z,1020.51
2018-12-12T05:18:47.519Z,1020.57
2018-12-12T05:19:47.603Z,1020.54
2018-12-12T05:20:47.633Z,1020.54
2018-12-12T05:21:47.969Z,1020.55
2018-12-12T05:22:47.644Z,1020.54
2018-12-12T05:23:47.724Z,1020.53
2018-12-12T05:24:47.754Z,1020.51
2018-12-12T05:25:47.732Z,1020.52
2018-12-12T05:26:47.816Z,1020.51
2018-12-12T05:27:47.850Z,1020.54
2018-12-12T05:28:48.121Z,1020.52
2018-12-12T05:29:47.857Z,1020.52
2018-12-12T05:30:47.891Z,1020.53
2018-12-12T05:31:47.920Z,1020.55
2018-12-12T05:32:48.008Z,1020.59
2018-12-12T05:33:48.031Z,1020.58
2018-12-12T05:34:48.009Z,1020.57
2018-12-12T05:35:48.336Z,1020.58
2018-12-12T05:36:48.073Z,1020.57
2018-12-12T05:37:51.778Z,1020.60
2018-12-12T05:38:48.182Z,1020.61
2018-12-12T05:39:48.211Z,1020.65
2018-12-12T05:40:48.192Z,1020.64
2018-12-12T05:41:48.215Z,1020.65
2018-12-12T05:42:48.551Z,1020.67
2018-12-12T05:43:48.332Z,1020.67
2018-12-12T05:44:48.306Z,1020.72
2018-12-12T05:45:48.352Z,1020.68
2018-12-12T05:46:48.376Z,1020.68
2018-12-12T05:47:48.405Z,1020.65
2018-12-12T05:48:48.487Z,1020.65
2018-12-12T05:49:48.760Z,1020.64
2018-12-12T05:50:48.496Z,1020.65
2018-12-12T05:51:48.576Z,1020.66
2018-12-12T05:52:48.558Z,1020.66
2018-12-12T05:53:48.632Z,1020.66
2018-12-12T05:54:48.619Z,1020.71
2018-12-12T05:55:48.698Z,1020.67
2018-12-12T05:56:52.297Z,1020.68
2018-12-12T05:57:48.775Z,1020.65
2018-12-12T05:58:48.787Z,1020.68
2018-12-12T05:59:48.820Z,1020.65
2018-12-12T06:00:48.845Z,1020.71
2018-12-12T06:01:48.830Z,1020.67
2018-12-12T06:02:48.860Z,1020.68
2018-12-12T06:03:49.186Z,1020.71
2018-12-12T06:04:48.919Z,1020.73
2018-12-12T06:05:48.998Z,1020.70
2018-12-12T06:06:48.979Z,1020.73
2018-12-12T06:07:49.075Z,1020.71
2018-12-12T06:09:49.128Z,1020.70
2018-12-12T06:10:49.411Z,1020.70
2018-12-12T06:11:49.133Z,1020.74
2018-12-12T06:12:49.164Z,1020.73
2018-12-12T06:13:49.256Z,1020.76
2018-12-12T06:14:49.286Z,1020.77
2018-12-12T06:15:49.310Z,1020.78
2018-12-12T06:16:49.286Z,1020.77
2018-12-12T06:17:49.316Z,1020.82
2018-12-12T06:18:49.401Z,1020.83
2018-12-12T06:19:49.433Z,1020.82
2018-12-12T06:21:49.441Z,1020.86
2018-12-12T06:22:49.487Z,1020.86
2018-12-12T06:23:49.551Z,1020.90
2018-12-12T06:24:49.531Z,1020.88
2018-12-12T06:25:49.609Z,1020.85
2018-12-12T06:26:49.647Z,1020.81
2018-12-12T06:27:49.673Z,1020.84
2018-12-12T06:28:49.656Z,1020.81
2018-12-12T06:29:49.685Z,1020.87
2018-12-12T06:30:49.705Z,1020.86
2018-12-12T06:31:49.794Z,1020.87
2018-12-12T06:32:49.823Z,1020.88
2018-12-12T06:33:49.802Z,1020.89
2018-12-12T06:34:50.130Z,1020.91
2018-12-12T06:35:49.861Z,1020.91
2018-12-12T06:36:49.940Z,1020.87
2018-12-12T06:37:49.927Z,1020.92
2018-12-12T06:38:49.956Z,1020.89
2018-12-12T06:39:50.030Z,1020.89
2018-12-12T06:40:50.061Z,1020.89
2018-12-12T06:41:50.347Z,1020.90
2018-12-12T06:42:50.080Z,1020.93
2018-12-12T06:43:50.158Z,1020.89
2018-12-12T06:44:50.200Z,1020.91
2018-12-12T06:45:50.228Z,1020.92
2018-12-12T06:46:50.254Z,1020.91
2018-12-12T06:47:50.233Z,1020.93
2018-12-12T06:48:50.258Z,1020.95
2018-12-12T06:49:50.339Z,1020.98
2018-12-12T06:50:50.318Z,1020.95
2018-12-12T06:51:50.561Z,1021.03
2018-12-12T06:52:50.394Z,1021.04
2018-12-12T06:53:50.638Z,1021.01
2018-12-12T06:54:50.571Z,1021.03
2018-12-12T06:55:50.569Z,1021.03
2018-12-12T06:56:50.548Z,1021.00
2018-12-12T06:57:50.554Z,1021.03
2018-12-12T06:58:50.631Z,1021.05
2018-12-12T06:59:50.652Z,1021.00
2018-12-12T07:00:50.935Z,1021.04
2018-12-12T07:01:50.658Z,1021.01
2018-12-12T07:02:50.680Z,1021.04
2018-12-12T07:03:50.771Z,1021.03
2018-12-12T07:04:50.791Z,1021.05
2018-12-12T07:05:50.792Z,1021.04
2018-12-12T07:06:50.857Z,1021.04
2018-12-12T07:07:50.854Z,1021.08
2018-12-12T07:08:52.025Z,1021.06
2018-12-12T07:09:50.906Z,1021.09
2018-12-12T07:10:50.933Z,1021.09
2018-12-12T07:11:51.006Z,1021.09
2018-12-12T07:12:50.989Z,1021.09
2018-12-12T07:13:51.064Z,1021.08
2018-12-12T07:14:51.055Z,1021.06
2018-12-12T07:15:51.086Z,1021.06
2018-12-12T07:16:51.112Z,1021.07
2018-12-12T07:17:51.237Z,1021.11
2018-12-12T07:18:51.470Z,1021.09
2018-12-12T07:19:51.254Z,1021.08
2018-12-12T07:20:51.230Z,1021.12
2018-12-12T07:21:51.310Z,1021.06
2018-12-12T07:22:51.287Z,1021.06
2018-12-12T07:23:51.379Z,1021.04
2018-12-12T07:24:51.351Z,1021.04
2018-12-12T07:25:51.429Z,1021.03
2018-12-12T07:26:51.410Z,1021.05
2018-12-12T07:27:51.495Z,1021.04
2018-12-12T07:29:51.552Z,1021.03
2018-12-12T07:30:51.536Z,1021.04
2018-12-12T07:31:51.618Z,1021.04
2018-12-12T07:32:51.648Z,1021.06
2018-12-12T07:33:51.628Z,1021.02
2018-12-12T07:34:51.661Z,1021.03
2018-12-12T07:35:51.742Z,1021.05
2018-12-12T07:36:51.771Z,1021.04
2018-12-12T07:37:51.804Z,1021.07
2018-12-12T07:38:51.778Z,1021.07
2018-12-12T07:39:51.855Z,1021.06
2018-12-12T07:40:51.839Z,1021.07
2018-12-12T07:41:51.869Z,1021.10
2018-12-12T07:42:52.041Z,1021.09
2018-12-12T07:43:52.230Z,1021.09
2018-12-12T07:44:51.961Z,1021.10
2018-12-12T07:45:52.042Z,1021.11
2018-12-12T07:46:52.057Z,1021.16
2018-12-12T07:47:52.215Z,1021.17
2018-12-12T07:48:52.096Z,1021.19
2018-12-12T07:49:52.467Z,1021.20
2018-12-12T07:50:52.141Z,1021.21
2018-12-12T07:51:52.220Z,1021.25
2018-12-12T07:52:52.201Z,1021.31
2018-12-12T07:53:52.232Z,1021.28
2018-12-12T07:54:52.699Z,1021.25
2018-12-12T07:55:52.600Z,1021.30
2018-12-12T07:56:52.371Z,1021.28
2018-12-12T07:57:52.357Z,1021.28
2018-12-12T07:58:52.452Z,1021.26
2018-12-12T07:59:52.466Z,1021.29
2018-12-12T08:00:52.447Z,1021.27
2018-12-12T08:01:52.478Z,1021.27
2018-12-12T08:02:52.803Z,1021.29
2018-12-12T08:03:52.590Z,1021.28
2018-12-12T08:04:52.613Z,1021.34
2018-12-12T08:05:52.633Z,1021.33
2018-12-12T08:06:52.625Z,1021.34
2018-12-12T08:07:52.662Z,1021.35
2018-12-12T08:08:52.744Z,1021.32
2018-12-12T08:09:53.016Z,1021.36
2018-12-12T08:10:52.801Z,1021.37
2018-12-12T08:11:52.840Z,1021.38
2018-12-12T08:12:52.812Z,1021.37
2018-12-12T08:13:52.900Z,1021.36
2018-12-12T08:14:52.876Z,1021.41
2018-12-12T08:15:52.959Z,1021.37
2018-12-12T08:16:53.234Z,1021.40
2018-12-12T08:17:52.959Z,1021.42
2018-12-12T08:18:53.061Z,1021.47
2018-12-12T08:19:53.070Z,1021.49
2018-12-12T08:20:53.118Z,1021.46
2018-12-12T08:21:53.083Z,1021.46
2018-12-12T08:22:53.178Z,1021.48
2018-12-12T08:23:53.448Z,1021.45
2018-12-12T08:24:53.178Z,1021.47
2018-12-12T08:25:53.229Z,1021.46
2018-12-12T08:26:53.233Z,1021.48
2018-12-12T08:27:53.267Z,1021.46
2018-12-12T08:28:53.354Z,1021.43
2018-12-12T08:29:53.331Z,1021.46
2018-12-12T08:30:53.663Z,1021.44
2018-12-12T08:31:53.438Z,1021.47
2018-12-12T08:32:53.418Z,1021.47
2018-12-12T08:33:53.454Z,1021.47
2018-12-12T08:34:53.501Z,1021.48
2018-12-12T08:35:53.565Z,1021.47
2018-12-12T08:36:53.595Z,1021.53
2018-12-12T08:37:53.873Z,1021.53
2018-12-12T08:38:53.604Z,1021.60
2018-12-12T08:39:53.701Z,1021.63
2018-12-12T08:40:53.677Z,1021.65
2018-12-12T08:41:53.747Z,1021.69
2018-12-12T08:42:53.784Z,1021.70
2018-12-12T08:43:53.802Z,1021.69
2018-12-12T08:44:54.098Z,1021.69
2018-12-12T08:45:53.815Z,1021.69
2018-12-12T08:46:53.899Z,1021.70
2018-12-12T08:47:53.928Z,1021.69
2018-12-12T08:48:53.959Z,1021.69
2018-12-12T08:49:53.986Z,1021.70
2018-12-12T08:50:53.968Z,1021.72
2018-12-12T08:51:54.049Z,1021.68
2018-12-12T08:52:54.032Z,1021.74
2018-12-12T08:53:54.115Z,1021.73
2018-12-12T08:54:54.090Z,1021.70
2018-12-12T08:55:54.169Z,1021.73
2018-12-12T08:56:54.204Z,1021.72
2018-12-12T08:57:54.490Z,1021.71
2018-12-12T08:58:54.207Z,1021.74
2018-12-12T08:59:54.288Z,1021.71
2018-12-12T09:00:54.268Z,1021.67
2018-12-12T09:01:54.354Z,1021.66
2018-12-12T09:02:54.386Z,1021.64
2018-12-12T09:03:54.418Z,1021.63
2018-12-12T09:04:54.402Z,1021.63
2018-12-12T09:05:54.487Z,1021.67
2018-12-12T09:06:54.454Z,1021.68
2018-12-12T09:07:54.538Z,1021.67
2018-12-12T09:08:54.528Z,1021.66
2018-12-12T09:09:54.549Z,1021.67
2018-12-12T09:10:54.635Z,1021.63
2018-12-12T09:11:54.612Z,1021.66
2018-12-12T09:12:54.643Z,1021.67
2018-12-12T09:13:54.721Z,1021.66
2018-12-12T09:14:54.708Z,1021.69
2018-12-12T09:15:55.030Z,1021.67
2018-12-12T09:16:54.765Z,1021.71
2018-12-12T09:17:54.793Z,1021.72
2018-12-12T09:18:54.885Z,1021.69
2018-12-12T09:19:54.903Z,1021.74
2018-12-12T09:20:54.879Z,1021.69
2018-12-12T09:21:54.915Z,1021.73
2018-12-12T09:22:55.245Z,1021.73
2018-12-12T09:23:54.971Z,1021.71
2018-12-12T09:24:55.060Z,1021.77
2018-12-12T09:25:55.036Z,1021.79
2018-12-12T09:26:55.067Z,1021.73
2018-12-12T09:27:55.149Z,1021.79
2018-12-12T09:28:55.135Z,1021.82
2018-12-12T09:29:55.225Z,1021.84
2018-12-12T09:30:55.197Z,1021.81
2018-12-12T09:31:55.280Z,1021.80
2018-12-12T09:32:55.320Z,1021.75
2018-12-12T09:33:55.282Z,1021.80
2018-12-12T09:34:55.311Z,1021.79
2018-12-12T09:35:55.648Z,1021.82
2018-12-12T09:36:55.377Z,1021.80
2018-12-12T09:37:55.453Z,1021.82
2018-12-12T09:38:55.483Z,1021.87
2018-12-12T09:39:55.559Z,1021.83
2018-12-12T09:40:55.504Z,1021.84
2018-12-12T09:41:55.532Z,1021.83
2018-12-12T09:42:55.866Z,1021.81
2018-12-12T09:43:55.642Z,1021.82
2018-12-12T09:44:55.612Z,1021.78
2018-12-12T09:45:55.700Z,1021.82
2018-12-12T09:46:55.783Z,1021.83
2018-12-12T09:47:55.762Z,1021.84
2018-12-12T09:48:55.811Z,1021.85
2018-12-12T09:49:56.072Z,1021.82
2018-12-12T09:50:55.803Z,1021.86
2018-12-12T09:51:55.830Z,1021.82
2018-12-12T09:52:55.909Z,1021.81
2018-12-12T09:53:55.894Z,1021.82
2018-12-12T09:54:55.921Z,1021.83
2018-12-12T09:55:56.008Z,1021.84
2018-12-12T09:57:56.308Z,1021.79
2018-12-12T09:58:56.096Z,1021.77
2018-12-12T09:59:56.130Z,1021.78
2018-12-12T10:00:56.156Z,1021.78
2018-12-12T10:01:56.131Z,1021.79
2018-12-12T10:02:56.166Z,1021.80
2018-12-12T10:03:56.244Z,1021.78
2018-12-12T10:04:56.574Z,1021.79
2018-12-12T10:05:56.268Z,1021.75
2018-12-12T10:06:56.284Z,1021.78
2018-12-12T10:07:56.374Z,1021.79
2018-12-12T10:08:57.568Z,1021.79
2018-12-12T10:09:56.430Z,1021.78
2018-12-12T10:10:56.409Z,1021.78
2018-12-12T10:11:56.748Z,1021.77
2018-12-12T10:12:56.477Z,1021.79
2018-12-12T10:13:56.557Z,1021.78
2018-12-12T10:14:56.542Z,1021.81
2018-12-12T10:15:56.617Z,1021.78
2018-12-12T10:16:56.597Z,1021.77
2018-12-12T10:17:56.674Z,1021.75
2018-12-12T10:18:56.703Z,1021.83
2018-12-12T10:19:56.742Z,1021.82
2018-12-12T10:20:56.720Z,1021.80
2018-12-12T10:21:56.800Z,1021.79
2018-12-12T10:22:56.832Z,1021.77
2018-12-12T10:23:56.875Z,1021.75
2018-12-12T10:24:57.145Z,1021.78
2018-12-12T10:25:56.918Z,1021.72
2018-12-12T10:26:56.952Z,1021.69
2018-12-12T10:27:56.932Z,1021.74
2018-12-12T10:28:56.962Z,1021.72
2018-12-12T10:29:57.043Z,1021.73
2018-12-12T10:31:57.358Z,1021.76
2018-12-12T10:32:57.082Z,1021.70
2018-12-12T10:33:57.166Z,1021.69
2018-12-12T10:34:57.192Z,1021.64
2018-12-12T10:35:57.256Z,1021.67
2018-12-12T10:36:57.284Z,1021.63
2018-12-12T10:37:57.534Z,1021.63
2018-12-12T10:38:57.288Z,1021.64
2018-12-12T10:39:57.363Z,1021.59
2018-12-12T10:40:57.387Z,1021.56
2018-12-12T10:41:57.370Z,1021.56
2018-12-12T10:42:57.396Z,1021.58
2018-12-12T10:43:57.478Z,1021.55
2018-12-12T10:44:57.455Z,1021.53
2018-12-12T10:45:57.566Z,1021.56
2018-12-12T10:46:57.573Z,1021.59
2018-12-12T10:47:57.608Z,1021.56
2018-12-12T10:48:57.576Z,1021.52
2018-12-12T10:49:57.606Z,1021.51
2018-12-12T10:50:57.697Z,1021.45
2018-12-12T10:52:57.718Z,1021.48
2018-12-12T10:53:57.746Z,1021.46
2018-12-12T10:54:57.771Z,1021.43
2018-12-12T10:55:58.109Z,1021.41
2018-12-12T10:56:57.880Z,1021.41
2018-12-12T10:57:57.868Z,1021.41
2018-12-12T10:58:57.883Z,1021.42
2018-12-12T10:59:57.965Z,1021.41
2018-12-12T11:00:58.012Z,1021.41
2018-12-12T11:02:58.333Z,1021.34
2018-12-12T11:03:58.094Z,1021.37
2018-12-12T11:04:58.422Z,1021.33
2018-12-12T11:05:58.104Z,1021.37
2018-12-12T11:06:58.228Z,1021.33
2018-12-12T11:07:58.176Z,1021.33
2018-12-12T11:08:58.244Z,1021.36
2018-12-12T11:09:58.226Z,1021.33
2018-12-12T11:10:58.307Z,1021.33
2018-12-12T11:11:58.336Z,1021.31
2018-12-12T11:12:58.373Z,1021.29
2018-12-12T11:13:58.354Z,1021.29
2018-12-12T11:15:58.458Z,1021.29
2018-12-12T11:16:58.442Z,1021.30
2018-12-12T11:17:58.524Z,1021.28
2018-12-12T11:19:58.582Z,1021.25
2018-12-12T11:20:58.616Z,1021.21
2018-12-12T11:21:58.645Z,1021.24
2018-12-12T11:22:58.994Z,1021.21
2018-12-12T11:23:58.708Z,1021.20
2018-12-12T11:24:58.683Z,1021.21
2018-12-12T11:26:58.812Z,1021.18
2018-12-12T11:28:58.865Z,1021.18
2018-12-12T11:29:58.846Z,1021.19
2018-12-12T11:30:58.925Z,1021.18
2018-12-12T11:31:58.953Z,1021.11
2018-12-12T11:32:58.982Z,1021.14
2018-12-12T11:34:58.999Z,1021.14
2018-12-12T11:35:59.330Z,1021.14
2018-12-12T11:37:59.137Z,1021.09
2018-12-12T11:38:59.174Z,1021.15
2018-12-12T11:39:59.210Z,1021.14
2018-12-12T11:40:59.230Z,1021.13
2018-12-12T11:41:59.510Z,1021.11
2018-12-12T11:42:59.246Z,1021.11
2018-12-12T11:44:59.307Z,1021.08
2018-12-12T11:46:59.419Z,1021.02
2018-12-12T11:47:59.457Z,1021.01
2018-12-12T11:48:59.582Z,1020.98
2018-12-12T11:49:59.458Z,1021.03
2018-12-12T11:50:59.487Z,1021.02
2018-12-12T11:51:59.578Z,1020.99
2018-12-12T11:52:59.608Z,1021.00
2018-12-12T11:54:59.615Z,1020.95
2018-12-12T11:55:59.944Z,1020.96
2018-12-12T11:56:59.677Z,1020.93
2018-12-12T11:57:59.756Z,1020.92
2018-12-12T11:59:59.820Z,1020.95
2018-12-12T12:00:59.878Z,1020.93
2018-12-12T12:01:59.828Z,1020.93
2018-12-12T12:03:00.165Z,1020.92
2018-12-12T12:03:59.962Z,1020.89
2018-12-12T12:04:59.983Z,1020.86
2018-12-12T12:05:59.957Z,1020.90
2018-12-12T12:08:00.016Z,1020.89
2018-12-12T12:09:00.122Z,1020.84
2018-12-12T12:10:00.390Z,1020.83
2018-12-12T12:11:00.130Z,1020.84
2018-12-12T12:12:00.145Z,1020.82
2018-12-12T12:13:00.249Z,1020.81
2018-12-12T12:14:00.265Z,1020.80
2018-12-12T12:15:00.289Z,1020.81
2018-12-12T12:16:00.380Z,1020.84
2018-12-12T12:17:00.300Z,1020.82
2018-12-12T12:18:00.377Z,1020.83
2018-12-12T12:19:00.369Z,1020.81
2018-12-12T12:20:00.445Z,1020.84
2018-12-12T12:21:00.477Z,1020.84
2018-12-12T12:22:00.458Z,1020.85
2018-12-12T12:23:00.480Z,1020.82
2018-12-12T12:24:00.566Z,1020.84
2018-12-12T12:25:00.543Z,1020.82
2018-12-12T12:26:00.652Z,1020.84
2018-12-12T12:27:00.712Z,1020.83
2018-12-12T12:28:00.696Z,1020.81
2018-12-12T12:29:00.677Z,1020.83
2018-12-12T12:30:00.711Z,1020.80
2018-12-12T12:31:00.789Z,1020.81
2018-12-12T12:32:00.794Z,1020.79
2018-12-12T12:33:00.846Z,1020.79
2018-12-12T12:34:03.382Z,1020.76
2018-12-12T12:35:00.874Z,1020.77